Wednesday, November 26, 2014
11:16 UTC
  |  Log In   |  Register Free
Airport Search:

Williamsburg-Jamestown Airport
(KJGG)

Williamsburg-Jamestown Airport Diagram
No Airport Diagram Available

FAA data valid effective November 13, 2014 - January 08, 2015 (unless otherwise noted).

 
 
 
 
 
 
 
 
 
 
 
 
 
 

Current Aviation Weather for Williamsburg-Jamestown Airport (KJGG)

The most recent METAR observation for KJGG was updated at: 1114
METAR Summary (Translated METAR)
KJGG
261055Z AUTO 05006KT 1 3/4SM OVC012 08/07 A2998 RMK AO1 P0012
KFAF
261058Z AUTO 04009G19KT 3SM RA BR BKN007 BKN012 OVC020 07/07 A2994 RMK AO2 SLP142 P0021 $
(8.2 nm SE from KJGG)
KPHF
260954Z 05018G28KT 1 3/4SM RA BKN008 BKN012 OVC018 09/06 A3000 RMK AO2 PK WND 06028/0954 SLP158 P0010 T00890061
(12.5 nm SE from KJGG)
TAF Summary (Translated TAF)
KFAF
(8.2 nm SE from KJGG)
2519/2701 02009KT 9999 FEW014 BKN020 OVC060 QNH2996INS TEMPO 2519/2524 6000 -RA BKN014 BKN020 OVC060 BECMG 2607/2608 03012KT 4800 -RA OVC005 510505 QNH2997INS BECMG 2611/2612 01015G25KT 4800 -RA OVC005 510505 QNH2982INS BECMG 2623/2624 32015G20KT 6000 -RA FEW005 OVC010 620255 QNH2997INS TX14/2519Z TN05/2619Z LAST NO AMDS AFT 2604 NEXT 2611
KPHF
(12.5 nm SE from KJGG)
260713Z 2607/2706 04012KT 3SM -RA BKN014 OVC040 TEMPO 2607/2608 1 1/2SM RA BR FM260800 03014G20KT 2SM -RA BR OVC009 FM261000 03016G25KT 2SM -RA BR OVC007 FM262000 01012G20KT 3SM -RA BR OVC005 FM270000 31008KT P6SM OVC025
  Airport Weather Conditions for KJGG

 Current Weather at JGG
46° F
Overcast
Northeast winds at 6.9 mph
JGG NOAA Radar

Pressure: 29.99 in
Humidity: 100%
Wind: Northeast at 6.9 MPH (6 KT)
Dew Point: 46.4°F
Visibility: 2.00 mi


Airport Weather Forecast for KJGG

Translated METAR and TAF for KJGG
Translated METAR for KJGG (1111 UTC 26 November 2014)
found at http://aviationweather.gov/adds/metars/
 
METAR text: KJGG 261055Z AUTO 05006KT 1 3/4SM OVC012 08/07 A2998 RMK AO1 P0012
Conditions at: KJGG (WILLIAMSBURG , VA, US) observed 1055 UTC 26 November 2014
Temperature: 8.0°C (46°F)
Dewpoint: 7.0°C (45°F) [RH = 93%]
Pressure (altimeter): 29.98 inches Hg (1015.3 mb)
Winds: from the NE (50 degrees) at 7 MPH (6 knots; 3.1 m/s)
Visibility: 1.75 miles (2.82 km)
Ceiling: 1200 feet AGL
Clouds: overcast cloud deck at 1200 feet AGL
Weather: automated observation with no human augmentation;
there may or may not be significant weather present at this time
Translated TAF for KJGG

There is no translated TAF available for this airport

Find All Airport Services Find A Hotel Find A Rental Car Find A Golf Course Find A Restaurant $100 Hamburger



FBO's on the Field
FBO Company Facility Photos Services Transportation Aviation Fuel Prices: Prices include tax
Catering Weather Repair Courtesy Rental Type 100LL JetA JetA+ MOGAS 8087
 
Williamsburg-Jamestown

This FBO has not yet been rated
FS:Shell
Last Updated: Oct-28
Login to update fuel prices
SS:
Contact Williamsburg-JamestownMore FBO Information
 
Add another FBO Facility Photos Catering Weather Repair Courtesy Rental Type 100LL JetA JetA+ MOGAS 8087
Services Transportation Aviation Fuel Prices: Prices include tax


model-print
model-print
model-print
model-print